Tirreno — IFPS2 — position and weather

sailwx.info

Track history (hours):
 
Tides and Currents Weather Stations Pressure Air Temp Water Temp Dewpoint Dewpoint Depression Visibility Wind Speed Wind Dir Waves Ship Positions

Tirreno

Last reported at 2017-Oct-17 19:59 UTC. Time now 2017-Oct-18 07:15 UTC.
Position N 44°20' E 028°41'.

Length 35 m; draft 5.3 m.

Type: Tug. MMSI: 247176600.

Date/timePositionNaut miles runAvg speedWind from/ knotsBaromVisibWave heightAir tempDewpointWater temp
2017-Oct-17 19:59N 44°20' E 028°41'0 0.0
2017-Oct-17 19:31N 44°20' E 028°41'0 0.0
2017-Oct-17 19:00N 44°20' E 028°41'0 0.0
2017-Oct-17 18:31N 44°20' E 028°41'0 0.0
2017-Oct-17 18:00N 44°20' E 028°41'0 0.0
2017-Oct-17 17:30N 44°20' E 028°41'0 0.0
2017-Oct-17 17:01N 44°20' E 028°41'0 0.0
2017-Oct-17 16:30N 44°20' E 028°41'0 0.0
2017-Oct-17 16:00N 44°20' E 028°41'0 0.0
2017-Oct-17 15:31N 44°20' E 028°41'0 0.0
2017-Oct-17 15:00N 44°20' E 028°41'0 0.0
2017-Oct-17 14:31N 44°20' E 028°41'0 0.0
2017-Oct-17 14:00N 44°20' E 028°41'0 0.0
2017-Oct-17 13:30N 44°20' E 028°41'1 2.7
2017-Oct-17 13:00N 44°19' E 028°42'2 4.5
2017-Oct-17 12:31N 44°18' E 028°45'3 6.6
2017-Oct-17 12:00N 44°20' E 028°41'0 0.0
2017-Oct-17 11:30N 44°20' E 028°41'0 0.0
2017-Oct-17 11:00N 44°20' E 028°41'0 0.0
2017-Oct-17 10:31N 44°20' E 028°41'0 0.0
2017-Oct-17 10:00N 44°20' E 028°41'0 0.0
2017-Oct-17 09:31N 44°20' E 028°41'0 0.0
2017-Oct-17 09:01N 44°20' E 028°41'0 0.0
2017-Oct-17 08:31N 44°20' E 028°41'0 0.0
2017-Oct-17 08:01N 44°20' E 028°41'0 0.0
2017-Oct-17 07:30N 44°20' E 028°41'0 0.0
2017-Oct-17 07:00N 44°20' E 028°41'0 0.0
2017-Oct-17 06:31N 44°20' E 028°41'0 0.0
2017-Oct-17 06:00N 44°20' E 028°41'0 0.0
2017-Oct-17 05:30N 44°20' E 028°41'0 0.0
2017-Oct-17 05:01N 44°20' E 028°41'0 0.0
2017-Oct-17 04:30N 44°20' E 028°41'0 0.0
2017-Oct-17 04:00N 44°20' E 028°41'0 0.0
2017-Oct-17 03:30N 44°20' E 028°41'0 0.0
2017-Oct-17 03:01N 44°20' E 028°41'0 0.0
2017-Oct-17 02:30N 44°20' E 028°41'0 0.0
2017-Oct-17 02:00N 44°20' E 028°41'0 0.0
2017-Oct-17 01:31N 44°20' E 028°41'0 0.0
2017-Oct-17 01:00N 44°20' E 028°41'0 0.0
2017-Oct-17 00:30N 44°20' E 028°41'0 0.0
2017-Oct-17 00:00N 44°20' E 028°41'0 0.0
2017-Oct-16 23:30N 44°20' E 028°41'0 0.0
2017-Oct-16 23:01N 44°20' E 028°41'0 0.0
2017-Oct-16 22:30N 44°20' E 028°41'0 0.0
2017-Oct-16 22:00N 44°20' E 028°41'0 0.0
2017-Oct-16 21:30N 44°20' E 028°41'0 0.0
2017-Oct-16 21:00N 44°20' E 028°41'0 0.0
2017-Oct-16 20:31N 44°20' E 028°41'0 0.0
2017-Oct-16 20:00N 44°20' E 028°41'0 0.0
2017-Oct-16 19:30N 44°20' E 028°41'0 0.0
2017-Oct-16 19:01N 44°20' E 028°41'0 0.0
2017-Oct-16 18:30N 44°20' E 028°41'1 1.3
2017-Oct-16 18:01N 44°20' E 028°41'4 9.0
2017-Oct-16 17:31N 44°18' E 028°47'0 0.6
2017-Oct-16 17:01N 44°18' E 028°47'0 0.4
2017-Oct-16 16:31N 44°18' E 028°47'0 0.5
2017-Oct-16 16:00N 44°18' E 028°46'0 0.2
2017-Oct-16 15:30N 44°18' E 028°46'0 0.2
2017-Oct-16 15:00N 44°18' E 028°46'0 0.1
2017-Oct-16 14:00N 44°18' E 028°46'0 0.1
2017-Oct-16 13:30N 44°18' E 028°46'0 0.1
2017-Oct-16 13:00N 44°18' E 028°46'0 0.2
2017-Oct-16 12:30N 44°18' E 028°46'0 0.3
2017-Oct-16 12:01N 44°18' E 028°46'0 0.1
2017-Oct-16 11:30N 44°18' E 028°46'0 0.1
2017-Oct-16 11:01N 44°18' E 028°46'0 0.1
2017-Oct-16 10:31N 44°18' E 028°46'0 0.1
2017-Oct-16 10:00N 44°18' E 028°46'0 0.0
2017-Oct-16 09:30N 44°18' E 028°46'0 0.0
2017-Oct-16 09:00N 44°18' E 028°46'0 0.1
2017-Oct-16 08:31N 44°18' E 028°46'0 0.0
2017-Oct-16 08:01N 44°18' E 028°46'0 0.1
2017-Oct-16 07:30N 44°18' E 028°46'0 0.1
2017-Oct-16 07:01N 44°18' E 028°46'0 0.1
2017-Oct-16 06:30N 44°17' E 028°46'0 0.1
2017-Oct-16 06:01N 44°17' E 028°46'0 0.2
2017-Oct-16 05:31N 44°17' E 028°47'0 0.2
2017-Oct-16 05:01N 44°18' E 028°47'0 0.1
2017-Oct-16 04:31N 44°18' E 028°47'0 0.0
2017-Oct-16 04:00N 44°18' E 028°47'0 0.1
2017-Oct-16 03:31N 44°18' E 028°47'0 0.0
2017-Oct-16 03:01N 44°18' E 028°47'0 0.0
2017-Oct-16 02:30N 44°18' E 028°47'0 0.2
2017-Oct-16 02:00N 44°18' E 028°47'0 0.3
2017-Oct-16 01:31N 44°18' E 028°47'0 0.3
2017-Oct-16 01:00N 44°18' E 028°47'0 0.2
2017-Oct-16 00:31N 44°18' E 028°47'0 0.1
2017-Oct-16 00:00N 44°18' E 028°47'0 0.1
2017-Oct-15 23:31N 44°18' E 028°47'0 0.2
2017-Oct-15 23:01N 44°18' E 028°47'0 0.1
2017-Oct-15 22:30N 44°18' E 028°47'0 0.3
2017-Oct-15 22:01N 44°18' E 028°47'0 0.2
2017-Oct-15 21:31N 44°18' E 028°47'0 0.0
2017-Oct-15 21:00N 44°18' E 028°47'0 0.1
2017-Oct-15 20:30N 44°18' E 028°47'0 0.1
2017-Oct-15 20:00N 44°18' E 028°47'0 0.1
2017-Oct-15 19:30N 44°18' E 028°47'0 0.0
2017-Oct-15 19:01N 44°18' E 028°47'0 0.1
2017-Oct-15 18:31N 44°18' E 028°47'0 0.2
2017-Oct-15 18:01N 44°18' E 028°47'0 0.2
2017-Oct-15 17:31N 44°18' E 028°47'0 0.1
2017-Oct-15 17:01N 44°18' E 028°47'0 0.1
2017-Oct-15 16:31N 44°18' E 028°47'0 0.1
2017-Oct-15 16:00N 44°18' E 028°47'0 0.1
2017-Oct-15 15:31N 44°18' E 028°47'0 0.1
2017-Oct-15 15:01N 44°18' E 028°47'0 0.0
2017-Oct-15 14:01N 44°18' E 028°47'0 0.0
2017-Oct-15 13:30N 44°18' E 028°47'0 0.0
2017-Oct-15 13:01N 44°18' E 028°47'0 0.1
2017-Oct-15 12:30N 44°18' E 028°47'0 0.0
2017-Oct-15 12:01N 44°18' E 028°47'0 0.0
2017-Oct-15 11:30N 44°18' E 028°47'0 0.2
2017-Oct-15 11:01N 44°18' E 028°47'0 0.1
2017-Oct-15 10:30N 44°18' E 028°47'0 0.3
2017-Oct-15 10:00N 44°18' E 028°47'0 0.2
2017-Oct-15 09:30N 44°18' E 028°47'0 0.0
2017-Oct-15 09:01N 44°18' E 028°47'0 0.0
2017-Oct-15 08:30N 44°18' E 028°47'0 0.1
2017-Oct-15 08:01N 44°18' E 028°47'0 0.0
2017-Oct-15 07:31N 44°18' E 028°47'0 0.0
2017-Oct-15 07:00N 44°18' E 028°47'0 0.1
2017-Oct-15 06:30N 44°18' E 028°47'0 0.8
2017-Oct-15 06:01N 44°18' E 028°48'1 1.7
2017-Oct-15 05:31N 44°17' E 028°49'1 1.1
2017-Oct-15 05:01N 44°17' E 028°49'3 5.7
2017-Oct-15 04:31N 44°18' E 028°46'4 7.8
2017-Oct-15 04:01N 44°20' E 028°41'0 0.0
2017-Oct-15 03:31N 44°20' E 028°41'0 0.0
2017-Oct-15 03:01N 44°20' E 028°41'0 0.0
2017-Oct-15 02:31N 44°20' E 028°41'0 0.0
2017-Oct-15 02:00N 44°20' E 028°41'0 0.0
2017-Oct-15 01:31N 44°20' E 028°41'0 0.0
2017-Oct-15 01:01N 44°20' E 028°41'0 0.0
2017-Oct-15 00:30N 44°20' E 028°41'0 0.0
2017-Oct-15 00:01N 44°20' E 028°41'0 0.0
2017-Oct-14 23:30N 44°20' E 028°41'0 0.0
2017-Oct-14 23:01N 44°20' E 028°41'0 0.0
2017-Oct-14 22:31N 44°20' E 028°41'0 0.0
2017-Oct-14 22:01N 44°20' E 028°41'0 0.0
2017-Oct-14 21:30N 44°20' E 028°41'0 0.0
2017-Oct-14 21:00N 44°20' E 028°41'0 0.0
2017-Oct-14 20:30N 44°20' E 028°41'0 0.0
2017-Oct-14 20:00N 44°20' E 028°41'0 0.0
2017-Oct-14 19:30N 44°20' E 028°41'0 0.0
2017-Oct-14 19:00N 44°20' E 028°41'0 0.0
2017-Oct-14 18:30N 44°20' E 028°41'0 0.0
2017-Oct-14 18:00N 44°20' E 028°41'0 0.0
2017-Oct-14 17:30N 44°20' E 028°41'0 0.0
2017-Oct-14 17:00N 44°20' E 028°41'0 0.0
2017-Oct-14 16:30N 44°20' E 028°41'0 0.0
2017-Oct-14 16:00N 44°20' E 028°41'0 0.0
2017-Oct-14 15:30N 44°20' E 028°41'0 0.0
2017-Oct-14 15:00N 44°20' E 028°41'0 0.0
2017-Oct-14 14:30N 44°20' E 028°41'0 0.0
2017-Oct-14 14:00N 44°20' E 028°41'0 0.0
2017-Oct-14 13:30N 44°20' E 028°41'0 0.0
2017-Oct-14 13:00N 44°20' E 028°41'0 0.0
2017-Oct-14 12:30N 44°20' E 028°41'0 0.0
2017-Oct-14 12:00N 44°20' E 028°41'0 0.0
2017-Oct-14 11:30N 44°20' E 028°41'0 0.0
2017-Oct-14 11:00N 44°20' E 028°41'3 5.0
2017-Oct-14 10:30N 44°18' E 028°43'3 5.7
2017-Oct-14 10:00N 44°17' E 028°47'0 0.7
2017-Oct-14 09:30N 44°17' E 028°47'0 0.1
2017-Oct-14 09:00N 44°17' E 028°47'0 0.2
2017-Oct-14 08:30N 44°17' E 028°46'0 0.2
2017-Oct-14 08:00N 44°18' E 028°47'0 0.1
2017-Oct-14 07:30N 44°18' E 028°47'0 0.1
2017-Oct-14 07:00N 44°18' E 028°47'0 0.0
2017-Oct-14 06:30N 44°18' E 028°47'0 0.1
2017-Oct-14 06:00N 44°17' E 028°47'0 0.1
2017-Oct-14 05:30N 44°17' E 028°47'0 0.1
2017-Oct-14 05:00N 44°17' E 028°47'0 0.1
2017-Oct-14 04:30N 44°17' E 028°47'0 0.1
2017-Oct-14 04:00N 44°17' E 028°46'0 0.0
2017-Oct-14 03:30N 44°17' E 028°46'0 0.1
2017-Oct-14 03:00N 44°18' E 028°46'0 0.0
2017-Oct-14 02:30N 44°18' E 028°46'0 0.1
2017-Oct-14 02:00N 44°18' E 028°46'0 0.1
2017-Oct-14 01:30N 44°18' E 028°46'0 0.1
2017-Oct-14 01:00N 44°18' E 028°46'0 0.1
2017-Oct-14 00:30N 44°18' E 028°46'0 0.0
2017-Oct-14 00:00N 44°18' E 028°46'0 0.1
2017-Oct-13 23:30N 44°18' E 028°46'0 0.0
2017-Oct-13 23:00N 44°18' E 028°46'0 0.0
2017-Oct-13 22:30N 44°18' E 028°46'0 0.0
2017-Oct-13 22:00N 44°18' E 028°46'0 0.0
2017-Oct-13 21:30N 44°18' E 028°46'0 0.0
2017-Oct-13 21:00N 44°18' E 028°46'0 0.0
2017-Oct-13 20:30N 44°18' E 028°46'0 0.0
2017-Oct-13 20:00N 44°18' E 028°46'0 0.1
2017-Oct-13 19:30N 44°18' E 028°46'0 0.3
2017-Oct-13 19:00N 44°17' E 028°47'0 0.5
2017-Oct-13 18:30N 44°18' E 028°47'0 0.2
2017-Oct-13 18:00N 44°18' E 028°47'0 0.0
2017-Oct-13 17:30N 44°18' E 028°47'0 0.2
2017-Oct-13 17:00N 44°18' E 028°47'0 0.1
2017-Oct-13 16:30N 44°18' E 028°47'0 0.1
2017-Oct-13 16:00N 44°18' E 028°47'0 0.0
2017-Oct-13 15:30N 44°18' E 028°47'0 0.1
2017-Oct-13 15:00N 44°18' E 028°47'0 0.0
2017-Oct-13 14:30N 44°18' E 028°47'0 0.0
2017-Oct-13 14:00N 44°18' E 028°47'0 0.0
2017-Oct-13 13:30N 44°18' E 028°47'0 0.0
2017-Oct-13 13:00N 44°18' E 028°47'0 0.0
2017-Oct-13 12:30N 44°18' E 028°47'0 0.0
2017-Oct-13 12:00N 44°18' E 028°47'0 0.0
2017-Oct-13 11:30N 44°18' E 028°47'0 0.1
2017-Oct-13 11:00N 44°18' E 028°47'0 0.0
2017-Oct-13 10:30N 44°18' E 028°47'0 0.1
2017-Oct-13 10:00N 44°18' E 028°47'0 0.0
2017-Oct-13 09:30N 44°18' E 028°47'0 0.0
2017-Oct-13 09:00N 44°18' E 028°47'0 0.1
2017-Oct-13 08:30N 44°18' E 028°47'0 0.2
2017-Oct-13 08:00N 44°18' E 028°47'0 0.1
2017-Oct-13 07:30N 44°18' E 028°47'0 0.1
2017-Oct-13 07:00N 44°18' E 028°47'0 0.3
2017-Oct-13 06:30N 44°18' E 028°47'0 0.9
2017-Oct-13 06:00N 44°18' E 028°48'1 2.4
2017-Oct-13 05:30N 44°17' E 028°49'1 1.2
2017-Oct-13 05:00N 44°16' E 028°49'2 4.9
2017-Oct-13 04:30N 44°18' E 028°46'4 8.9
2017-Oct-13 04:00N 44°20' E 028°41'0 0.0
2017-Oct-13 03:30N 44°20' E 028°41'0 0.0
2017-Oct-13 03:00N 44°20' E 028°41'0 0.0
2017-Oct-13 02:30N 44°20' E 028°41'0 0.0
2017-Oct-13 02:00N 44°20' E 028°41'0 0.0
2017-Oct-13 01:30N 44°20' E 028°41'0 0.0
2017-Oct-13 01:00N 44°20' E 028°41'0 0.0
2017-Oct-13 00:30N 44°20' E 028°41'0 0.0
2017-Oct-13 00:00N 44°20' E 028°41'0 0.0
2017-Oct-12 23:30N 44°20' E 028°41'0 0.0
2017-Oct-12 23:00N 44°20' E 028°41'0 0.0
2017-Oct-12 22:30N 44°20' E 028°41'0 0.0
2017-Oct-12 22:00N 44°20' E 028°41'0 0.0
2017-Oct-12 21:30N 44°20' E 028°41'0 0.0
2017-Oct-12 21:00N 44°20' E 028°41'0 0.0
2017-Oct-12 20:30N 44°20' E 028°41'0 0.0
2017-Oct-12 20:00N 44°20' E 028°41'0 0.0
2017-Oct-12 19:30N 44°20' E 028°41'0 0.0
2017-Oct-12 19:00N 44°20' E 028°41'0 0.0
2017-Oct-12 18:30N 44°20' E 028°41'0 0.0
2017-Oct-12 18:00N 44°20' E 028°41'0 0.0
2017-Oct-12 17:30N 44°20' E 028°41'0 0.0
2017-Oct-12 17:00N 44°20' E 028°41'  
2017-Oct-09 08:46N 44°21' E 028°41'0 0.0
2017-Oct-09 08:30N 44°21' E 028°41'0 0.0
2017-Oct-09 08:00N 44°21' E 028°41'0 0.0
2017-Oct-09 07:30N 44°21' E 028°41'0 0.5
2017-Oct-09 07:00N 44°20' E 028°41'0 0.0
2017-Oct-09 06:30N 44°20' E 028°41'0 0.0
2017-Oct-09 06:00N 44°20' E 028°41'0 0.0
2017-Oct-09 05:30N 44°20' E 028°41'0 0.0
2017-Oct-09 05:00N 44°20' E 028°41'0 0.0
2017-Oct-09 04:30N 44°20' E 028°41'0 0.0
2017-Oct-09 04:00N 44°20' E 028°41'0 0.0
2017-Oct-09 03:30N 44°20' E 028°41'0 0.0
2017-Oct-09 03:00N 44°20' E 028°41'0 0.0
2017-Oct-09 02:30N 44°20' E 028°41'0 0.0
2017-Oct-09 02:00N 44°20' E 028°41'0 0.0
2017-Oct-09 01:30N 44°20' E 028°41'0 0.0
2017-Oct-09 01:00N 44°20' E 028°41'0 0.0
2017-Oct-09 00:30N 44°20' E 028°41'0 0.0
2017-Oct-09 00:00N 44°20' E 028°41'0 0.0
2017-Oct-08 23:30N 44°20' E 028°41'0 0.0
2017-Oct-08 23:00N 44°20' E 028°41'0 0.0
2017-Oct-08 22:30N 44°20' E 028°41'0 0.0
2017-Oct-08 22:00N 44°20' E 028°41'0 0.0
2017-Oct-08 21:30N 44°20' E 028°41'0 0.0
2017-Oct-08 21:00N 44°20' E 028°41'0 0.0
2017-Oct-08 20:30N 44°20' E 028°41'0 0.0
2017-Oct-08 20:00N 44°20' E 028°41'0 0.0
2017-Oct-08 19:30N 44°20' E 028°41'0 0.0
2017-Oct-08 19:00N 44°20' E 028°41'0 0.0
2017-Oct-08 18:30N 44°20' E 028°41'0 0.0
2017-Oct-08 18:00N 44°20' E 028°41'0 0.0
2017-Oct-08 17:30N 44°20' E 028°41'0 0.0
2017-Oct-08 17:00N 44°20' E 028°41'0 0.0
2017-Oct-08 16:30N 44°20' E 028°41'0 0.0
2017-Oct-08 16:00N 44°20' E 028°41'0 0.0
2017-Oct-08 15:30N 44°20' E 028°41'0 0.0
2017-Oct-08 15:00N 44°20' E 028°41'0 0.0
2017-Oct-08 14:30N 44°20' E 028°41'0 0.0
2017-Oct-08 14:00N 44°20' E 028°41'0 0.0
2017-Oct-08 13:30N 44°20' E 028°41'0 0.0
2017-Oct-08 13:00N 44°20' E 028°41'0 0.0
2017-Oct-08 12:30N 44°20' E 028°41'0 0.0
2017-Oct-08 12:00N 44°20' E 028°41'0 0.0
2017-Oct-08 11:30N 44°20' E 028°41'0 0.0
2017-Oct-08 11:00N 44°20' E 028°41'0 0.0
2017-Oct-08 10:30N 44°20' E 028°41'0 0.0
2017-Oct-08 10:00N 44°20' E 028°41'0 0.0
2017-Oct-08 09:30N 44°20' E 028°41'0 0.0
2017-Oct-08 09:00N 44°20' E 028°41'0 0.0
2017-Oct-08 08:30N 44°20' E 028°41'0 0.0
2017-Oct-08 08:00N 44°20' E 028°41'0 0.0
2017-Oct-08 07:30N 44°20' E 028°41'0 0.0
2017-Oct-08 07:00N 44°20' E 028°41'0 0.0
2017-Oct-08 06:30N 44°20' E 028°41'0 0.0
2017-Oct-08 06:00N 44°20' E 028°41'0 0.0
2017-Oct-08 05:30N 44°20' E 028°41'0 0.0
2017-Oct-08 05:00N 44°20' E 028°41'0 0.0
2017-Oct-08 04:30N 44°20' E 028°41'0 0.0
2017-Oct-08 04:00N 44°20' E 028°41'0 0.0
2017-Oct-08 03:30N 44°20' E 028°41'0 0.0
2017-Oct-08 03:00N 44°20' E 028°41'0 0.0
2017-Oct-08 02:30N 44°20' E 028°41'0 0.0
2017-Oct-08 02:00N 44°20' E 028°41'0 0.0
2017-Oct-08 01:30N 44°20' E 028°41'0 0.0
2017-Oct-08 01:00N 44°20' E 028°41'0 0.0
2017-Oct-08 00:30N 44°20' E 028°41'0 0.0
2017-Oct-08 00:00N 44°20' E 028°41'0 0.0
2017-Oct-07 23:30N 44°20' E 028°41'0 0.0
2017-Oct-07 23:00N 44°20' E 028°41'0 0.0
2017-Oct-07 22:30N 44°20' E 028°41'0 0.0
2017-Oct-07 22:00N 44°20' E 028°41'0 0.0
2017-Oct-07 21:30N 44°20' E 028°41'0 0.0
2017-Oct-07 21:00N 44°20' E 028°41'0 0.0
2017-Oct-07 20:30N 44°20' E 028°41'0 0.0
2017-Oct-07 20:00N 44°20' E 028°41'  
Track history (hours):
 
Tides and Currents Weather Stations Pressure Air Temp Water Temp Dewpoint Dewpoint Depression Visibility Wind Speed Wind Dir Waves Ship Positions

Tirreno

Last reported at 2017-Oct-17 19:59 UTC. Time now 2017-Oct-18 07:15 UTC.
Position N 44°20' E 028°41'.

Length 35 m; draft 5.3 m.

Type: Tug. MMSI: 247176600.

Date/timePositionNaut miles runAvg speedWind from/ knotsBaromVisibWave heightAir tempDewpointWater temp
2017-Oct-17 19:59N 44°20' E 028°41'0 0.0
2017-Oct-17 19:31N 44°20' E 028°41'0 0.0
2017-Oct-17 19:00N 44°20' E 028°41'0 0.0
2017-Oct-17 18:31N 44°20' E 028°41'0 0.0
2017-Oct-17 18:00N 44°20' E 028°41'0 0.0
2017-Oct-17 17:30N 44°20' E 028°41'0 0.0
2017-Oct-17 17:01N 44°20' E 028°41'0 0.0
2017-Oct-17 16:30N 44°20' E 028°41'0 0.0
2017-Oct-17 16:00N 44°20' E 028°41'0 0.0
2017-Oct-17 15:31N 44°20' E 028°41'0 0.0
2017-Oct-17 15:00N 44°20' E 028°41'0 0.0
2017-Oct-17 14:31N 44°20' E 028°41'0 0.0
2017-Oct-17 14:00N 44°20' E 028°41'0 0.0
2017-Oct-17 13:30N 44°20' E 028°41'1 2.7
2017-Oct-17 13:00N 44°19' E 028°42'2 4.5
2017-Oct-17 12:31N 44°18' E 028°45'3 6.6
2017-Oct-17 12:00N 44°20' E 028°41'0 0.0
2017-Oct-17 11:30N 44°20' E 028°41'0 0.0
2017-Oct-17 11:00N 44°20' E 028°41'0 0.0
2017-Oct-17 10:31N 44°20' E 028°41'0 0.0
2017-Oct-17 10:00N 44°20' E 028°41'0 0.0
2017-Oct-17 09:31N 44°20' E 028°41'0 0.0
2017-Oct-17 09:01N 44°20' E 028°41'0 0.0
2017-Oct-17 08:31N 44°20' E 028°41'0 0.0
2017-Oct-17 08:01N 44°20' E 028°41'0 0.0
2017-Oct-17 07:30N 44°20' E 028°41'0 0.0
2017-Oct-17 07:00N 44°20' E 028°41'0 0.0
2017-Oct-17 06:31N 44°20' E 028°41'0 0.0
2017-Oct-17 06:00N 44°20' E 028°41'0 0.0
2017-Oct-17 05:30N 44°20' E 028°41'0 0.0
2017-Oct-17 05:01N 44°20' E 028°41'0 0.0
2017-Oct-17 04:30N 44°20' E 028°41'0 0.0
2017-Oct-17 04:00N 44°20' E 028°41'0 0.0
2017-Oct-17 03:30N 44°20' E 028°41'0 0.0
2017-Oct-17 03:01N 44°20' E 028°41'0 0.0
2017-Oct-17 02:30N 44°20' E 028°41'0 0.0
2017-Oct-17 02:00N 44°20' E 028°41'0 0.0
2017-Oct-17 01:31N 44°20' E 028°41'0 0.0
2017-Oct-17 01:00N 44°20' E 028°41'0 0.0
2017-Oct-17 00:30N 44°20' E 028°41'0 0.0
2017-Oct-17 00:00N 44°20' E 028°41'0 0.0
2017-Oct-16 23:30N 44°20' E 028°41'0 0.0
2017-Oct-16 23:01N 44°20' E 028°41'0 0.0
2017-Oct-16 22:30N 44°20' E 028°41'0 0.0
2017-Oct-16 22:00N 44°20' E 028°41'0 0.0
2017-Oct-16 21:30N 44°20' E 028°41'0 0.0
2017-Oct-16 21:00N 44°20' E 028°41'0 0.0
2017-Oct-16 20:31N 44°20' E 028°41'0 0.0
2017-Oct-16 20:00N 44°20' E 028°41'0 0.0
2017-Oct-16 19:30N 44°20' E 028°41'0 0.0
2017-Oct-16 19:01N 44°20' E 028°41'0 0.0
2017-Oct-16 18:30N 44°20' E 028°41'1 1.3
2017-Oct-16 18:01N 44°20' E 028°41'4 9.0
2017-Oct-16 17:31N 44°18' E 028°47'0 0.6
2017-Oct-16 17:01N 44°18' E 028°47'0 0.4
2017-Oct-16 16:31N 44°18' E 028°47'0 0.5
2017-Oct-16 16:00N 44°18' E 028°46'0 0.2
2017-Oct-16 15:30N 44°18' E 028°46'0 0.2
2017-Oct-16 15:00N 44°18' E 028°46'0 0.1
2017-Oct-16 14:00N 44°18' E 028°46'0 0.1
2017-Oct-16 13:30N 44°18' E 028°46'0 0.1
2017-Oct-16 13:00N 44°18' E 028°46'0 0.2
2017-Oct-16 12:30N 44°18' E 028°46'0 0.3
2017-Oct-16 12:01N 44°18' E 028°46'0 0.1
2017-Oct-16 11:30N 44°18' E 028°46'0 0.1
2017-Oct-16 11:01N 44°18' E 028°46'0 0.1
2017-Oct-16 10:31N 44°18' E 028°46'0 0.1
2017-Oct-16 10:00N 44°18' E 028°46'0 0.0
2017-Oct-16 09:30N 44°18' E 028°46'0 0.0
2017-Oct-16 09:00N 44°18' E 028°46'0 0.1
2017-Oct-16 08:31N 44°18' E 028°46'0 0.0
2017-Oct-16 08:01N 44°18' E 028°46'0 0.1
2017-Oct-16 07:30N 44°18' E 028°46'0 0.1
2017-Oct-16 07:01N 44°18' E 028°46'0 0.1
2017-Oct-16 06:30N 44°17' E 028°46'0 0.1
2017-Oct-16 06:01N 44°17' E 028°46'0 0.2
2017-Oct-16 05:31N 44°17' E 028°47'0 0.2
2017-Oct-16 05:01N 44°18' E 028°47'0 0.1
2017-Oct-16 04:31N 44°18' E 028°47'0 0.0
2017-Oct-16 04:00N 44°18' E 028°47'0 0.1
2017-Oct-16 03:31N 44°18' E 028°47'0 0.0
2017-Oct-16 03:01N 44°18' E 028°47'0 0.0
2017-Oct-16 02:30N 44°18' E 028°47'0 0.2
2017-Oct-16 02:00N 44°18' E 028°47'0 0.3
2017-Oct-16 01:31N 44°18' E 028°47'0 0.3
2017-Oct-16 01:00N 44°18' E 028°47'0 0.2
2017-Oct-16 00:31N 44°18' E 028°47'0 0.1
2017-Oct-16 00:00N 44°18' E 028°47'0 0.1
2017-Oct-15 23:31N 44°18' E 028°47'0 0.2
2017-Oct-15 23:01N 44°18' E 028°47'0 0.1
2017-Oct-15 22:30N 44°18' E 028°47'0 0.3
2017-Oct-15 22:01N 44°18' E 028°47'0 0.2
2017-Oct-15 21:31N 44°18' E 028°47'0 0.0
2017-Oct-15 21:00N 44°18' E 028°47'0 0.1
2017-Oct-15 20:30N 44°18' E 028°47'0 0.1
2017-Oct-15 20:00N 44°18' E 028°47'0 0.1
2017-Oct-15 19:30N 44°18' E 028°47'0 0.0
2017-Oct-15 19:01N 44°18' E 028°47'0 0.1
2017-Oct-15 18:31N 44°18' E 028°47'0 0.2
2017-Oct-15 18:01N 44°18' E 028°47'0 0.2
2017-Oct-15 17:31N 44°18' E 028°47'0 0.1
2017-Oct-15 17:01N 44°18' E 028°47'0 0.1
2017-Oct-15 16:31N 44°18' E 028°47'0 0.1
2017-Oct-15 16:00N 44°18' E 028°47'0 0.1
2017-Oct-15 15:31N 44°18' E 028°47'0 0.1
2017-Oct-15 15:01N 44°18' E 028°47'0 0.0
2017-Oct-15 14:01N 44°18' E 028°47'0 0.0
2017-Oct-15 13:30N 44°18' E 028°47'0 0.0
2017-Oct-15 13:01N 44°18' E 028°47'0 0.1
2017-Oct-15 12:30N 44°18' E 028°47'0 0.0
2017-Oct-15 12:01N 44°18' E 028°47'0 0.0
2017-Oct-15 11:30N 44°18' E 028°47'0 0.2
2017-Oct-15 11:01N 44°18' E 028°47'0 0.1
2017-Oct-15 10:30N 44°18' E 028°47'0 0.3
2017-Oct-15 10:00N 44°18' E 028°47'0 0.2
2017-Oct-15 09:30N 44°18' E 028°47'0 0.0
2017-Oct-15 09:01N 44°18' E 028°47'0 0.0
2017-Oct-15 08:30N 44°18' E 028°47'0 0.1
2017-Oct-15 08:01N 44°18' E 028°47'0 0.0
2017-Oct-15 07:31N 44°18' E 028°47'0 0.0
2017-Oct-15 07:00N 44°18' E 028°47'0 0.1
2017-Oct-15 06:30N 44°18' E 028°47'0 0.8
2017-Oct-15 06:01N 44°18' E 028°48'1 1.7
2017-Oct-15 05:31N 44°17' E 028°49'1 1.1
2017-Oct-15 05:01N 44°17' E 028°49'3 5.7
2017-Oct-15 04:31N 44°18' E 028°46'4 7.8
2017-Oct-15 04:01N 44°20' E 028°41'0 0.0
2017-Oct-15 03:31N 44°20' E 028°41'0 0.0
2017-Oct-15 03:01N 44°20' E 028°41'0 0.0
2017-Oct-15 02:31N 44°20' E 028°41'0 0.0
2017-Oct-15 02:00N 44°20' E 028°41'0 0.0
2017-Oct-15 01:31N 44°20' E 028°41'0 0.0
2017-Oct-15 01:01N 44°20' E 028°41'0 0.0
2017-Oct-15 00:30N 44°20' E 028°41'0 0.0
2017-Oct-15 00:01N 44°20' E 028°41'0 0.0
2017-Oct-14 23:30N 44°20' E 028°41'0 0.0
2017-Oct-14 23:01N 44°20' E 028°41'0 0.0
2017-Oct-14 22:31N 44°20' E 028°41'0 0.0
2017-Oct-14 22:01N 44°20' E 028°41'0 0.0
2017-Oct-14 21:30N 44°20' E 028°41'0 0.0
2017-Oct-14 21:00N 44°20' E 028°41'0 0.0
2017-Oct-14 20:30N 44°20' E 028°41'0 0.0
2017-Oct-14 20:00N 44°20' E 028°41'0 0.0
2017-Oct-14 19:30N 44°20' E 028°41'0 0.0
2017-Oct-14 19:00N 44°20' E 028°41'0 0.0
2017-Oct-14 18:30N 44°20' E 028°41'0 0.0
2017-Oct-14 18:00N 44°20' E 028°41'0 0.0
2017-Oct-14 17:30N 44°20' E 028°41'0 0.0
2017-Oct-14 17:00N 44°20' E 028°41'0 0.0
2017-Oct-14 16:30N 44°20' E 028°41'0 0.0
2017-Oct-14 16:00N 44°20' E 028°41'0 0.0
2017-Oct-14 15:30N 44°20' E 028°41'0 0.0
2017-Oct-14 15:00N 44°20' E 028°41'0 0.0
2017-Oct-14 14:30N 44°20' E 028°41'0 0.0
2017-Oct-14 14:00N 44°20' E 028°41'0 0.0
2017-Oct-14 13:30N 44°20' E 028°41'0 0.0
2017-Oct-14 13:00N 44°20' E 028°41'0 0.0
2017-Oct-14 12:30N 44°20' E 028°41'0 0.0
2017-Oct-14 12:00N 44°20' E 028°41'0 0.0
2017-Oct-14 11:30N 44°20' E 028°41'0 0.0
2017-Oct-14 11:00N 44°20' E 028°41'3 5.0
2017-Oct-14 10:30N 44°18' E 028°43'3 5.7
2017-Oct-14 10:00N 44°17' E 028°47'0 0.7
2017-Oct-14 09:30N 44°17' E 028°47'0 0.1
2017-Oct-14 09:00N 44°17' E 028°47'0 0.2
2017-Oct-14 08:30N 44°17' E 028°46'0 0.2
2017-Oct-14 08:00N 44°18' E 028°47'0 0.1
2017-Oct-14 07:30N 44°18' E 028°47'0 0.1
2017-Oct-14 07:00N 44°18' E 028°47'0 0.0
2017-Oct-14 06:30N 44°18' E 028°47'0 0.1
2017-Oct-14 06:00N 44°17' E 028°47'0 0.1
2017-Oct-14 05:30N 44°17' E 028°47'0 0.1
2017-Oct-14 05:00N 44°17' E 028°47'0 0.1
2017-Oct-14 04:30N 44°17' E 028°47'0 0.1
2017-Oct-14 04:00N 44°17' E 028°46'0 0.0
2017-Oct-14 03:30N 44°17' E 028°46'0 0.1
2017-Oct-14 03:00N 44°18' E 028°46'0 0.0
2017-Oct-14 02:30N 44°18' E 028°46'0 0.1
2017-Oct-14 02:00N 44°18' E 028°46'0 0.1
2017-Oct-14 01:30N 44°18' E 028°46'0 0.1
2017-Oct-14 01:00N 44°18' E 028°46'0 0.1
2017-Oct-14 00:30N 44°18' E 028°46'0 0.0
2017-Oct-14 00:00N 44°18' E 028°46'0 0.1
2017-Oct-13 23:30N 44°18' E 028°46'0 0.0
2017-Oct-13 23:00N 44°18' E 028°46'0 0.0
2017-Oct-13 22:30N 44°18' E 028°46'0 0.0
2017-Oct-13 22:00N 44°18' E 028°46'0 0.0
2017-Oct-13 21:30N 44°18' E 028°46'0 0.0
2017-Oct-13 21:00N 44°18' E 028°46'0 0.0
2017-Oct-13 20:30N 44°18' E 028°46'0 0.0
2017-Oct-13 20:00N 44°18' E 028°46'0 0.1
2017-Oct-13 19:30N 44°18' E 028°46'0 0.3
2017-Oct-13 19:00N 44°17' E 028°47'0 0.5
2017-Oct-13 18:30N 44°18' E 028°47'0 0.2
2017-Oct-13 18:00N 44°18' E 028°47'0 0.0
2017-Oct-13 17:30N 44°18' E 028°47'0 0.2
2017-Oct-13 17:00N 44°18' E 028°47'0 0.1
2017-Oct-13 16:30N 44°18' E 028°47'0 0.1
2017-Oct-13 16:00N 44°18' E 028°47'0 0.0
2017-Oct-13 15:30N 44°18' E 028°47'0 0.1
2017-Oct-13 15:00N 44°18' E 028°47'0 0.0
2017-Oct-13 14:30N 44°18' E 028°47'0 0.0
2017-Oct-13 14:00N 44°18' E 028°47'0 0.0
2017-Oct-13 13:30N 44°18' E 028°47'0 0.0
2017-Oct-13 13:00N 44°18' E 028°47'0 0.0
2017-Oct-13 12:30N 44°18' E 028°47'0 0.0
2017-Oct-13 12:00N 44°18' E 028°47'0 0.0
2017-Oct-13 11:30N 44°18' E 028°47'0 0.1
2017-Oct-13 11:00N 44°18' E 028°47'0 0.0
2017-Oct-13 10:30N 44°18' E 028°47'0 0.1
2017-Oct-13 10:00N 44°18' E 028°47'0 0.0
2017-Oct-13 09:30N 44°18' E 028°47'0 0.0
2017-Oct-13 09:00N 44°18' E 028°47'0 0.1
2017-Oct-13 08:30N 44°18' E 028°47'0 0.2
2017-Oct-13 08:00N 44°18' E 028°47'0 0.1
2017-Oct-13 07:30N 44°18' E 028°47'0 0.1
2017-Oct-13 07:00N 44°18' E 028°47'0 0.3
2017-Oct-13 06:30N 44°18' E 028°47'0 0.9
2017-Oct-13 06:00N 44°18' E 028°48'1 2.4
2017-Oct-13 05:30N 44°17' E 028°49'1 1.2
2017-Oct-13 05:00N 44°16' E 028°49'2 4.9
2017-Oct-13 04:30N 44°18' E 028°46'4 8.9
2017-Oct-13 04:00N 44°20' E 028°41'0 0.0
2017-Oct-13 03:30N 44°20' E 028°41'0 0.0
2017-Oct-13 03:00N 44°20' E 028°41'0 0.0
2017-Oct-13 02:30N 44°20' E 028°41'0 0.0
2017-Oct-13 02:00N 44°20' E 028°41'0 0.0
2017-Oct-13 01:30N 44°20' E 028°41'0 0.0
2017-Oct-13 01:00N 44°20' E 028°41'0 0.0
2017-Oct-13 00:30N 44°20' E 028°41'0 0.0
2017-Oct-13 00:00N 44°20' E 028°41'0 0.0
2017-Oct-12 23:30N 44°20' E 028°41'0 0.0
2017-Oct-12 23:00N 44°20' E 028°41'0 0.0
2017-Oct-12 22:30N 44°20' E 028°41'0 0.0
2017-Oct-12 22:00N 44°20' E 028°41'0 0.0
2017-Oct-12 21:30N 44°20' E 028°41'0 0.0
2017-Oct-12 21:00N 44°20' E 028°41'0 0.0
2017-Oct-12 20:30N 44°20' E 028°41'0 0.0
2017-Oct-12 20:00N 44°20' E 028°41'0 0.0
2017-Oct-12 19:30N 44°20' E 028°41'0 0.0
2017-Oct-12 19:00N 44°20' E 028°41'0 0.0
2017-Oct-12 18:30N 44°20' E 028°41'0 0.0
2017-Oct-12 18:00N 44°20' E 028°41'0 0.0
2017-Oct-12 17:30N 44°20' E 028°41'0 0.0
2017-Oct-12 17:00N 44°20' E 028°41'  
2017-Oct-09 08:46N 44°21' E 028°41'0 0.0
2017-Oct-09 08:30N 44°21' E 028°41'0 0.0
2017-Oct-09 08:00N 44°21' E 028°41'0 0.0
2017-Oct-09 07:30N 44°21' E 028°41'0 0.5
2017-Oct-09 07:00N 44°20' E 028°41'0 0.0
2017-Oct-09 06:30N 44°20' E 028°41'0 0.0
2017-Oct-09 06:00N 44°20' E 028°41'0 0.0
2017-Oct-09 05:30N 44°20' E 028°41'0 0.0
2017-Oct-09 05:00N 44°20' E 028°41'0 0.0
2017-Oct-09 04:30N 44°20' E 028°41'0 0.0
2017-Oct-09 04:00N 44°20' E 028°41'0 0.0
2017-Oct-09 03:30N 44°20' E 028°41'0 0.0
2017-Oct-09 03:00N 44°20' E 028°41'0 0.0
2017-Oct-09 02:30N 44°20' E 028°41'0 0.0
2017-Oct-09 02:00N 44°20' E 028°41'0 0.0
2017-Oct-09 01:30N 44°20' E 028°41'0 0.0
2017-Oct-09 01:00N 44°20' E 028°41'0 0.0
2017-Oct-09 00:30N 44°20' E 028°41'0 0.0
2017-Oct-09 00:00N 44°20' E 028°41'0 0.0
2017-Oct-08 23:30N 44°20' E 028°41'0 0.0
2017-Oct-08 23:00N 44°20' E 028°41'0 0.0
2017-Oct-08 22:30N 44°20' E 028°41'0 0.0
2017-Oct-08 22:00N 44°20' E 028°41'0 0.0
2017-Oct-08 21:30N 44°20' E 028°41'0 0.0
2017-Oct-08 21:00N 44°20' E 028°41'0 0.0
2017-Oct-08 20:30N 44°20' E 028°41'0 0.0
2017-Oct-08 20:00N 44°20' E 028°41'0 0.0
2017-Oct-08 19:30N 44°20' E 028°41'0 0.0
2017-Oct-08 19:00N 44°20' E 028°41'0 0.0
2017-Oct-08 18:30N 44°20' E 028°41'0 0.0
2017-Oct-08 18:00N 44°20' E 028°41'0 0.0
2017-Oct-08 17:30N 44°20' E 028°41'0 0.0
2017-Oct-08 17:00N 44°20' E 028°41'0 0.0
2017-Oct-08 16:30N 44°20' E 028°41'0 0.0
2017-Oct-08 16:00N 44°20' E 028°41'0 0.0
2017-Oct-08 15:30N 44°20' E 028°41'0 0.0
2017-Oct-08 15:00N 44°20' E 028°41'0 0.0
2017-Oct-08 14:30N 44°20' E 028°41'0 0.0
2017-Oct-08 14:00N 44°20' E 028°41'0 0.0
2017-Oct-08 13:30N 44°20' E 028°41'0 0.0
2017-Oct-08 13:00N 44°20' E 028°41'0 0.0
2017-Oct-08 12:30N 44°20' E 028°41'0 0.0
2017-Oct-08 12:00N 44°20' E 028°41'0 0.0
2017-Oct-08 11:30N 44°20' E 028°41'0 0.0
2017-Oct-08 11:00N 44°20' E 028°41'0 0.0
2017-Oct-08 10:30N 44°20' E 028°41'0 0.0
2017-Oct-08 10:00N 44°20' E 028°41'0 0.0
2017-Oct-08 09:30N 44°20' E 028°41'0 0.0
2017-Oct-08 09:00N 44°20' E 028°41'0 0.0
2017-Oct-08 08:30N 44°20' E 028°41'0 0.0
2017-Oct-08 08:00N 44°20' E 028°41'0 0.0
2017-Oct-08 07:30N 44°20' E 028°41'0 0.0
2017-Oct-08 07:00N 44°20' E 028°41'0 0.0
2017-Oct-08 06:30N 44°20' E 028°41'0 0.0
2017-Oct-08 06:00N 44°20' E 028°41'0 0.0
2017-Oct-08 05:30N 44°20' E 028°41'0 0.0
2017-Oct-08 05:00N 44°20' E 028°41'0 0.0
2017-Oct-08 04:30N 44°20' E 028°41'0 0.0
2017-Oct-08 04:00N 44°20' E 028°41'0 0.0
2017-Oct-08 03:30N 44°20' E 028°41'0 0.0
2017-Oct-08 03:00N 44°20' E 028°41'0 0.0
2017-Oct-08 02:30N 44°20' E 028°41'0 0.0
2017-Oct-08 02:00N 44°20' E 028°41'0 0.0
2017-Oct-08 01:30N 44°20' E 028°41'0 0.0
2017-Oct-08 01:00N 44°20' E 028°41'0 0.0
2017-Oct-08 00:30N 44°20' E 028°41'0 0.0
2017-Oct-08 00:00N 44°20' E 028°41'0 0.0
2017-Oct-07 23:30N 44°20' E 028°41'0 0.0
2017-Oct-07 23:00N 44°20' E 028°41'0 0.0
2017-Oct-07 22:30N 44°20' E 028°41'0 0.0
2017-Oct-07 22:00N 44°20' E 028°41'0 0.0
2017-Oct-07 21:30N 44°20' E 028°41'0 0.0
2017-Oct-07 21:00N 44°20' E 028°41'0 0.0
2017-Oct-07 20:30N 44°20' E 028°41'0 0.0
2017-Oct-07 20:00N 44°20' E 028°41'  

Dump ship's entire track history